createdAt,value
2018-08-19T00:01:19.992Z,4.70
2018-08-19T00:03:48.827Z,5.27
2018-08-19T00:06:17.773Z,5.30
2018-08-19T00:08:46.654Z,5.07
2018-08-19T00:11:15.682Z,5.20
2018-08-19T00:13:44.640Z,4.93
2018-08-19T00:16:13.428Z,5.27
2018-08-19T00:18:42.526Z,4.47
2018-08-19T00:21:12.377Z,4.60
2018-08-19T00:23:46.342Z,4.60
2018-08-19T00:26:15.404Z,5.03
2018-08-19T00:28:44.499Z,4.80
2018-08-19T00:31:13.381Z,4.60
2018-08-19T00:33:42.268Z,4.70
2018-08-19T00:36:24.968Z,3.77
2018-08-19T00:38:54.521Z,3.90
2018-08-19T00:41:23.475Z,4.70
2018-08-19T00:43:52.337Z,3.60
2018-08-19T00:46:31.107Z,4.40
2018-08-19T00:49:00.972Z,4.10
2018-08-19T00:51:29.861Z,4.43
2018-08-19T00:53:58.872Z,3.77
2018-08-19T00:56:27.916Z,4.10
2018-08-19T00:58:56.779Z,3.90
2018-08-19T01:01:38.268Z,4.27
2018-08-19T01:04:08.743Z,4.30
2018-08-19T01:06:42.820Z,4.33
2018-08-19T01:09:11.855Z,4.13
2018-08-19T01:11:44.155Z,4.20
2018-08-19T01:14:15.331Z,4.67
2018-08-19T01:16:44.297Z,4.73
2018-08-19T01:19:13.135Z,4.20
2018-08-19T01:21:42.087Z,4.17
2018-08-19T01:24:12.285Z,4.70
2018-08-19T01:26:42.235Z,4.30
2018-08-19T01:29:11.852Z,5.20
2018-08-19T01:31:40.775Z,5.50
2018-08-19T01:34:12.472Z,5.50
2018-08-19T01:36:41.446Z,5.53
2018-08-19T01:39:12.205Z,5.23
2018-08-19T01:41:41.941Z,5.63
2018-08-19T01:44:14.705Z,5.37
2018-08-19T01:46:49.289Z,5.63
2018-08-19T01:49:18.051Z,5.33
2018-08-19T01:51:47.427Z,5.57
2018-08-19T01:54:22.361Z,5.67
2018-08-19T01:56:58.457Z,5.80
2018-08-19T01:59:30.811Z,5.57
2018-08-19T02:02:02.343Z,5.77
2018-08-19T02:04:32.242Z,5.70
2018-08-19T02:07:01.906Z,5.80
2018-08-19T02:09:30.738Z,5.40
2018-08-19T02:12:00.571Z,5.77
2018-08-19T02:14:29.744Z,6.10
2018-08-19T02:16:58.718Z,6.47
2018-08-19T02:19:27.616Z,6.57
2018-08-19T02:21:56.451Z,5.50
2018-08-19T02:24:25.301Z,4.77
2018-08-19T02:26:54.503Z,4.53
2018-08-19T02:29:33.941Z,4.53
2018-08-19T02:32:10.752Z,4.80
2018-08-19T02:34:42.153Z,5.20
2018-08-19T02:37:12.992Z,4.97
2018-08-19T02:39:43.819Z,4.90
2018-08-19T02:42:22.274Z,4.77
2018-08-19T02:44:53.031Z,5.30
2018-08-19T02:47:21.977Z,5.20
2018-08-19T02:49:51.010Z,5.20
2018-08-19T02:52:25.053Z,4.70
2018-08-19T02:54:54.369Z,5.50
2018-08-19T02:57:23.274Z,5.37
2018-08-19T02:59:52.075Z,5.63
2018-08-19T03:02:29.691Z,4.90
2018-08-19T03:04:59.270Z,5.40
2018-08-19T03:07:29.287Z,5.80
2018-08-19T03:10:05.601Z,5.90
2018-08-19T03:12:34.513Z,5.93
2018-08-19T03:15:03.845Z,5.57
2018-08-19T03:17:33.193Z,5.03
2018-08-19T03:20:02.151Z,5.40
2018-08-19T03:22:31.429Z,4.97
2018-08-19T03:25:01.361Z,4.37
2018-08-19T03:27:30.518Z,4.50
2018-08-19T03:30:02.041Z,4.90
2018-08-19T03:32:31.008Z,4.73
2018-08-19T03:35:07.507Z,5.97
2018-08-19T03:37:37.383Z,4.80
2018-08-19T03:40:06.860Z,4.60
2018-08-19T03:42:35.935Z,5.13
2018-08-19T03:45:10.150Z,5.10
2018-08-19T03:47:39.137Z,4.30
2018-08-19T03:50:13.155Z,4.47
2018-08-19T03:52:43.939Z,4.10
2018-08-19T03:55:23.192Z,5.00
2018-08-19T03:57:52.716Z,4.67
2018-08-19T04:00:21.842Z,4.60
2018-08-19T04:02:50.696Z,5.00
2018-08-19T04:05:30.779Z,4.77
2018-08-19T04:07:59.663Z,5.40
2018-08-19T04:10:28.513Z,5.70
2018-08-19T04:12:57.529Z,5.20
2018-08-19T04:15:26.535Z,5.87
2018-08-19T04:17:55.551Z,5.43
2018-08-19T04:20:24.541Z,5.67
2018-08-19T04:22:53.754Z,6.33
2018-08-19T04:25:27.740Z,5.80
2018-08-19T04:27:56.561Z,5.50
2018-08-19T04:30:25.531Z,5.20
2018-08-19T04:32:54.507Z,5.47
2018-08-19T04:35:23.489Z,5.03
2018-08-19T04:37:52.467Z,6.80
2018-08-19T04:40:21.286Z,5.90
2018-08-19T04:42:50.081Z,6.57
2018-08-19T04:45:19.221Z,6.73
2018-08-19T04:47:48.057Z,5.77
2018-08-19T04:50:16.938Z,5.50
2018-08-19T04:52:45.811Z,4.93
2018-08-19T04:55:14.646Z,6.20
2018-08-19T04:57:43.541Z,6.23
2018-08-19T05:00:12.514Z,6.63
2018-08-19T05:02:41.432Z,6.30
2018-08-19T05:05:10.266Z,6.23
2018-08-19T05:07:39.161Z,6.10
2018-08-19T05:10:08.083Z,5.20
2018-08-19T05:12:37.275Z,6.13
2018-08-19T05:15:06.509Z,5.03
2018-08-19T05:17:35.419Z,6.20
2018-08-19T05:20:14.255Z,5.57
2018-08-19T05:22:43.696Z,5.00
2018-08-19T05:25:12.466Z,5.50
2018-08-19T05:27:41.249Z,5.40
2018-08-19T05:30:10.036Z,5.13
2018-08-19T05:32:47.096Z,5.37
2018-08-19T05:35:16.008Z,5.03
2018-08-19T05:37:44.977Z,5.20
2018-08-19T05:40:13.821Z,5.50
2018-08-19T05:42:42.629Z,5.13
2018-08-19T05:45:11.634Z,4.87
2018-08-19T05:47:40.408Z,5.28
2018-08-19T05:50:09.324Z,5.30
2018-08-19T05:52:38.094Z,5.12
2018-08-19T05:55:06.972Z,5.95
2018-08-19T05:57:36.008Z,5.17
2018-08-19T06:00:10.489Z,4.92
2018-08-19T06:02:44.244Z,4.70
2018-08-19T06:05:13.176Z,5.62
2018-08-19T06:07:42.239Z,5.25
2018-08-19T06:10:10.920Z,5.10
2018-08-19T06:12:39.732Z,5.35
2018-08-19T06:15:08.691Z,4.08
2018-08-19T06:17:37.579Z,4.70
2018-08-19T06:20:06.908Z,4.75
2018-08-19T06:22:40.033Z,4.80
2018-08-19T06:25:09.755Z,5.58
2018-08-19T06:27:48.704Z,5.63
2018-08-19T06:30:18.549Z,5.90
2018-08-19T06:32:47.800Z,5.85
2018-08-19T06:35:16.662Z,6.30
2018-08-19T06:37:45.574Z,5.65
2018-08-19T06:40:16.506Z,5.90
2018-08-19T06:42:45.898Z,5.67
2018-08-19T06:45:15.276Z,5.78
2018-08-19T06:47:44.345Z,5.00
2018-08-19T06:50:26.277Z,6.10
2018-08-19T06:52:56.078Z,6.10
2018-08-19T06:55:25.148Z,5.53
2018-08-19T06:57:56.056Z,4.87
2018-08-19T07:00:26.048Z,5.40
2018-08-19T07:02:55.814Z,5.50
2018-08-19T07:05:24.888Z,5.67
2018-08-19T07:07:53.816Z,6.20
2018-08-19T07:10:29.160Z,7.00
2018-08-19T07:13:17.598Z,6.78
2018-08-19T07:15:46.501Z,5.75
2018-08-19T07:18:16.512Z,6.00
2018-08-19T07:20:45.852Z,6.50
2018-08-19T07:23:14.757Z,6.90
2018-08-19T07:25:44.935Z,6.65
2018-08-19T07:28:15.248Z,6.80
2018-08-19T07:30:44.604Z,7.60
2018-08-19T07:33:13.969Z,6.22
2018-08-19T07:35:42.890Z,5.67
2018-08-19T07:38:11.750Z,6.83
2018-08-19T07:40:40.582Z,7.75
2018-08-19T07:43:09.578Z,7.55
2018-08-19T07:45:38.460Z,7.97
2018-08-19T07:48:07.424Z,6.42
2018-08-19T07:50:36.318Z,6.97
2018-08-19T07:53:05.578Z,7.50
2018-08-19T07:55:34.631Z,7.28
2018-08-19T07:58:03.521Z,7.58
2018-08-19T08:00:37.688Z,7.60
2018-08-19T08:03:06.808Z,7.70
2018-08-19T08:05:41.012Z,7.75
2018-08-19T08:08:10.064Z,7.95
2018-08-19T08:10:39.433Z,7.28
2018-08-19T08:13:12.395Z,8.43
2018-08-19T08:15:46.504Z,7.50
2018-08-19T08:18:15.670Z,7.15
2018-08-19T08:20:44.554Z,7.20
2018-08-19T08:23:23.110Z,6.85
2018-08-19T08:25:52.020Z,6.47
2018-08-19T08:28:20.913Z,7.78
2018-08-19T08:30:49.905Z,8.13
2018-08-19T08:33:18.828Z,7.30
2018-08-19T08:35:52.953Z,6.97
2018-08-19T08:38:21.990Z,7.60
2018-08-19T08:40:51.161Z,7.78
2018-08-19T08:43:20.779Z,7.53
2018-08-19T08:45:49.767Z,7.10
2018-08-19T08:48:18.623Z,7.17
2018-08-19T08:50:47.572Z,6.47
2018-08-19T08:53:16.372Z,6.92
2018-08-19T08:55:45.275Z,7.22
2018-08-19T08:58:14.207Z,6.45
2018-08-19T09:00:43.133Z,6.47
2018-08-19T09:03:11.963Z,6.40
2018-08-19T09:05:40.844Z,5.80
2018-08-19T09:08:09.774Z,5.97
2018-08-19T09:10:38.546Z,6.10
2018-08-19T09:13:07.465Z,6.22
2018-08-19T09:15:36.375Z,6.00
2018-08-19T09:18:05.333Z,6.03
2018-08-19T09:20:34.231Z,5.85
2018-08-19T09:23:03.037Z,5.90
2018-08-19T09:25:32.120Z,5.37
2018-08-19T09:28:00.923Z,6.70
2018-08-19T09:30:38.364Z,5.80
2018-08-19T09:33:07.201Z,6.17
2018-08-19T09:35:40.973Z,5.00
2018-08-19T09:38:13.303Z,5.37
2018-08-19T09:40:42.518Z,5.55
2018-08-19T09:43:11.557Z,5.25
2018-08-19T09:45:40.577Z,6.15
2018-08-19T09:48:10.259Z,4.67
2018-08-19T09:50:40.074Z,4.70
2018-08-19T09:53:09.027Z,4.50
2018-08-19T09:55:40.791Z,4.00
2018-08-19T09:58:13.497Z,3.83
2018-08-19T10:00:47.633Z,4.65
2018-08-19T10:03:16.872Z,4.60
2018-08-19T10:05:46.194Z,5.12
2018-08-19T10:08:15.479Z,4.60
2018-08-19T10:10:44.565Z,4.75
2018-08-19T10:13:15.667Z,4.78
2018-08-19T10:15:44.758Z,4.83
2018-08-19T10:18:13.627Z,4.70
2018-08-19T10:20:42.631Z,5.00
2018-08-19T10:23:11.468Z,4.70
2018-08-19T10:25:40.334Z,5.72
2018-08-19T10:28:09.189Z,5.40
2018-08-19T10:30:44.768Z,4.85
2018-08-19T10:33:13.987Z,5.03
2018-08-19T10:35:43.008Z,5.05
2018-08-19T10:38:12.064Z,5.50
2018-08-19T10:40:40.982Z,5.45
2018-08-19T10:43:10.745Z,5.12
2018-08-19T10:45:41.513Z,5.05
2018-08-19T10:48:12.177Z,5.40
2018-08-19T10:50:41.053Z,5.53
2018-08-19T10:53:16.662Z,5.78
2018-08-19T10:55:46.829Z,4.95
2018-08-19T10:58:15.787Z,4.70
2018-08-19T11:00:44.659Z,5.30
2018-08-19T11:03:18.621Z,5.42
2018-08-19T11:05:48.781Z,5.45
2018-08-19T11:08:17.666Z,5.30
2018-08-19T11:10:46.597Z,4.62
2018-08-19T11:13:20.284Z,5.08
2018-08-19T11:15:52.566Z,4.97
2018-08-19T11:18:41.655Z,4.72
2018-08-19T11:21:13.815Z,4.95
2018-08-19T11:23:44.007Z,4.97
2018-08-19T11:26:13.525Z,4.53
2018-08-19T11:28:52.091Z,5.00
2018-08-19T11:31:27.028Z,5.00
2018-08-19T11:33:58.963Z,5.00
2018-08-19T11:36:34.095Z,4.83
2018-08-19T11:39:03.015Z,5.00
2018-08-19T11:41:33.511Z,4.92
2018-08-19T11:44:06.641Z,4.53
2018-08-19T11:46:35.599Z,4.70
2018-08-19T11:49:10.321Z,4.33
2018-08-19T11:51:46.973Z,4.45
2018-08-19T11:54:17.151Z,4.47
2018-08-19T11:57:02.065Z,4.90
2018-08-19T11:59:50.129Z,4.80
2018-08-19T12:02:20.462Z,4.83
2018-08-19T12:04:49.409Z,4.67
2018-08-19T12:07:18.986Z,4.67
2018-08-19T12:09:55.902Z,4.58
2018-08-19T12:12:41.245Z,3.92
2018-08-19T12:15:10.063Z,3.85
2018-08-19T12:17:38.900Z,4.20
2018-08-19T12:20:08.268Z,4.50
2018-08-19T12:22:37.816Z,4.30
2018-08-19T12:25:06.670Z,5.03
2018-08-19T12:27:35.708Z,4.15
2018-08-19T12:30:11.876Z,3.92
2018-08-19T12:32:40.898Z,4.30
2018-08-19T12:35:09.755Z,4.45
2018-08-19T12:37:38.591Z,4.00
2018-08-19T12:40:08.241Z,4.23
2018-08-19T12:42:44.244Z,4.28
2018-08-19T12:45:13.253Z,4.28
2018-08-19T12:47:42.224Z,3.70
2018-08-19T12:50:13.828Z,4.12
2018-08-19T12:52:43.110Z,3.80
2018-08-19T12:55:14.388Z,3.87
2018-08-19T12:57:43.800Z,4.03
2018-08-19T13:00:20.298Z,4.00
2018-08-19T13:02:51.272Z,4.10
2018-08-19T13:05:20.936Z,3.95
2018-08-19T13:07:51.036Z,3.23
2018-08-19T13:10:20.515Z,3.92
2018-08-19T13:12:58.316Z,3.70
2018-08-19T13:15:30.259Z,3.55
2018-08-19T13:17:59.422Z,3.55
2018-08-19T13:20:28.390Z,3.37
2018-08-19T13:23:02.495Z,4.50
2018-08-19T13:25:32.270Z,3.90
2018-08-19T13:28:02.088Z,4.28
2018-08-19T13:30:30.927Z,3.70
2018-08-19T13:32:59.801Z,3.80
2018-08-19T13:35:28.531Z,3.92
2018-08-19T13:37:57.325Z,3.95
2018-08-19T13:40:26.221Z,3.83
2018-08-19T13:42:55.200Z,3.90
2018-08-19T13:45:26.441Z,3.83
2018-08-19T13:47:55.392Z,3.92
2018-08-19T13:50:24.330Z,4.05
2018-08-19T13:52:53.214Z,4.00
2018-08-19T13:55:22.050Z,4.20
2018-08-19T13:57:50.944Z,3.70
2018-08-19T14:00:21.549Z,3.83
2018-08-19T14:02:50.824Z,4.00
2018-08-19T14:05:19.638Z,3.80
2018-08-19T14:07:48.446Z,3.30
2018-08-19T14:10:17.568Z,3.60
2018-08-19T14:12:46.370Z,3.80
2018-08-19T14:15:15.214Z,3.50
2018-08-19T14:17:44.359Z,4.17
2018-08-19T14:20:13.305Z,3.87
2018-08-19T14:22:42.163Z,4.08
2018-08-19T14:25:12.137Z,9.65
2018-08-19T14:27:41.150Z,3.95
2018-08-19T14:30:11.806Z,3.95
2018-08-19T14:32:42.089Z,4.00
2018-08-19T14:35:10.909Z,3.67
2018-08-19T14:37:39.677Z,3.70
2018-08-19T14:40:10.749Z,3.85
2018-08-19T14:42:39.601Z,3.85
2018-08-19T14:45:08.477Z,3.62
2018-08-19T14:47:37.406Z,3.30
2018-08-19T14:50:11.990Z,3.67
2018-08-19T14:52:40.822Z,3.92
2018-08-19T14:55:10.150Z,3.60
2018-08-19T14:57:39.005Z,3.20
2018-08-19T15:00:09.986Z,3.50
2018-08-19T15:02:39.298Z,3.45
2018-08-19T15:05:08.562Z,3.25
2018-08-19T15:07:37.897Z,3.17
2018-08-19T15:10:06.938Z,3.45
2018-08-19T15:12:35.832Z,3.52
2018-08-19T15:15:04.709Z,3.58
2018-08-19T15:17:33.579Z,3.30
2018-08-19T15:20:02.477Z,3.50
2018-08-19T15:22:31.406Z,3.70
2018-08-19T15:25:00.264Z,3.60
2018-08-19T15:27:29.269Z,3.90
2018-08-19T15:29:58.170Z,3.50
2018-08-19T15:32:27.386Z,4.25
2018-08-19T15:34:56.000Z,3.80
2018-08-19T15:37:24.890Z,3.72
2018-08-19T15:39:53.846Z,3.52
2018-08-19T15:42:22.842Z,3.50
2018-08-19T15:44:51.762Z,4.00
2018-08-19T15:47:20.547Z,3.70
2018-08-19T15:49:54.590Z,3.77
2018-08-19T15:52:23.530Z,3.50
2018-08-19T15:54:56.793Z,3.80
2018-08-19T15:57:25.624Z,3.55
2018-08-19T15:59:54.382Z,3.65
2018-08-19T16:02:23.348Z,3.42
2018-08-19T16:04:52.175Z,3.80
2018-08-19T16:07:21.078Z,3.30
2018-08-19T16:09:49.914Z,3.27
2018-08-19T16:12:18.980Z,3.42
2018-08-19T16:14:47.792Z,3.52
2018-08-19T16:17:16.685Z,3.80
2018-08-19T16:19:45.573Z,3.40
2018-08-19T16:22:14.470Z,3.60
2018-08-19T16:24:43.452Z,4.12
2018-08-19T16:27:12.364Z,3.95
2018-08-19T16:29:41.190Z,3.67
2018-08-19T16:32:09.976Z,3.80
2018-08-19T16:34:39.020Z,3.70
2018-08-19T16:37:07.994Z,3.80
2018-08-19T16:39:37.354Z,3.98
2018-08-19T16:42:06.477Z,3.72
2018-08-19T16:44:35.346Z,3.55
2018-08-19T16:47:04.294Z,4.10
2018-08-19T16:49:33.169Z,4.00
2018-08-19T16:52:02.060Z,3.87
2018-08-19T16:54:30.981Z,3.90
2018-08-19T16:56:59.966Z,3.77
2018-08-19T16:59:28.748Z,3.87
2018-08-19T17:01:57.547Z,3.80
2018-08-19T17:04:26.396Z,3.70
2018-08-19T17:06:55.182Z,3.73
2018-08-19T17:09:24.012Z,3.73
2018-08-19T17:11:52.947Z,3.47
2018-08-19T17:14:21.726Z,3.57
2018-08-19T17:16:50.702Z,3.55
2018-08-19T17:19:19.654Z,3.80
2018-08-19T17:21:48.549Z,3.50
2018-08-19T17:24:17.534Z,3.40
2018-08-19T17:26:46.546Z,3.70
2018-08-19T17:29:18.282Z,3.55
2018-08-19T17:31:47.410Z,3.40
2018-08-19T17:34:21.296Z,3.67
2018-08-19T17:36:50.103Z,3.75
2018-08-19T17:39:21.332Z,3.80
2018-08-19T17:41:51.545Z,3.70
2018-08-19T17:44:21.173Z,3.55
2018-08-19T17:46:53.975Z,3.20
2018-08-19T17:49:26.758Z,3.80
2018-08-19T17:51:56.946Z,3.83
2018-08-19T17:54:31.856Z,3.47
2018-08-19T17:57:02.003Z,3.40
2018-08-19T17:59:31.199Z,3.85
2018-08-19T18:02:00.517Z,3.80
2018-08-19T18:04:48.468Z,3.72
2018-08-19T18:07:23.848Z,3.65
2018-08-19T18:09:57.870Z,3.60
2018-08-19T18:12:27.054Z,3.27
2018-08-19T18:14:56.014Z,3.75
2018-08-19T18:17:25.008Z,3.35
2018-08-19T18:19:53.693Z,3.37
2018-08-19T18:22:22.706Z,3.33
2018-08-19T18:25:02.751Z,3.30
2018-08-19T18:27:31.660Z,3.80
2018-08-19T18:30:00.805Z,3.77
2018-08-19T18:32:29.756Z,3.40
2018-08-19T18:34:58.559Z,3.70
2018-08-19T18:37:27.489Z,3.47
2018-08-19T18:39:56.350Z,3.30
2018-08-19T18:42:35.517Z,3.50
2018-08-19T18:45:08.834Z,3.33
2018-08-19T18:47:48.812Z,3.20
2018-08-19T18:50:18.434Z,3.80
2018-08-19T18:52:47.271Z,3.50
2018-08-19T18:55:16.199Z,3.52
2018-08-19T18:57:50.961Z,3.10
2018-08-19T19:00:21.448Z,3.47
2018-08-19T19:02:53.669Z,3.55
2018-08-19T19:05:35.616Z,3.50
2018-08-19T19:08:13.451Z,3.50
2018-08-19T19:10:54.388Z,3.33
2018-08-19T19:13:24.390Z,3.50
2018-08-19T19:15:53.298Z,3.33
2018-08-19T19:18:22.148Z,3.45
2018-08-19T19:20:56.492Z,3.40
2018-08-19T19:23:32.658Z,3.22
2018-08-19T19:26:02.939Z,3.20
2018-08-19T19:28:32.069Z,2.90
2018-08-19T19:31:06.321Z,3.10
2018-08-19T19:33:36.058Z,2.83
2018-08-19T19:36:10.400Z,3.70
2018-08-19T19:38:45.542Z,3.37
2018-08-19T19:41:14.412Z,3.83
2018-08-19T19:43:43.810Z,3.40
2018-08-19T19:46:12.636Z,3.50
2018-08-19T19:48:41.452Z,3.77
2018-08-19T19:51:10.359Z,3.23
2018-08-19T19:53:39.296Z,3.43
2018-08-19T19:56:12.573Z,2.90
2018-08-19T19:58:43.642Z,3.30
2018-08-19T20:01:12.539Z,3.60
2018-08-19T20:03:46.736Z,3.90
2018-08-19T20:06:15.534Z,3.90
2018-08-19T20:08:44.400Z,3.50
2018-08-19T20:11:19.734Z,3.73
2018-08-19T20:13:49.131Z,3.10
2018-08-19T20:16:18.297Z,3.83
2018-08-19T20:18:47.187Z,3.40
2018-08-19T20:21:23.043Z,3.33
2018-08-19T20:23:53.300Z,3.07
2018-08-19T20:26:22.856Z,3.57
2018-08-19T20:28:53.634Z,3.53
2018-08-19T20:31:22.506Z,3.90
2018-08-19T20:33:51.295Z,3.80
2018-08-19T20:36:20.521Z,3.23
2018-08-19T20:38:49.529Z,3.57
2018-08-19T20:41:18.503Z,3.30
2018-08-19T20:43:47.327Z,3.60
2018-08-19T20:46:16.356Z,4.30
2018-08-19T20:48:47.551Z,4.43
2018-08-19T20:51:16.675Z,4.33
2018-08-19T20:53:45.589Z,4.00
2018-08-19T20:56:14.592Z,4.30
2018-08-19T20:58:43.411Z,4.40
2018-08-19T21:01:18.037Z,4.40
2018-08-19T21:03:47.133Z,4.17
2018-08-19T21:06:16.000Z,3.97
2018-08-19T21:08:45.859Z,3.70
2018-08-19T21:11:14.625Z,4.07
2018-08-19T21:13:43.727Z,4.40
2018-08-19T21:16:12.643Z,3.43
2018-08-19T21:18:41.484Z,4.00
2018-08-19T21:21:10.349Z,3.97
2018-08-19T21:23:39.274Z,3.90
2018-08-19T21:26:08.463Z,4.30
2018-08-19T21:28:37.321Z,4.13
2018-08-19T21:31:06.151Z,4.23
2018-08-19T21:33:35.049Z,3.83
2018-08-19T21:36:04.129Z,4.20
2018-08-19T21:38:32.994Z,4.00
2018-08-19T21:41:02.258Z,3.97
2018-08-19T21:43:31.709Z,3.87
2018-08-19T21:46:01.157Z,4.23
2018-08-19T21:48:30.051Z,4.10
2018-08-19T21:50:58.858Z,4.40
2018-08-19T21:53:28.145Z,3.93
2018-08-19T21:55:57.002Z,3.97
2018-08-19T21:58:25.905Z,3.70
2018-08-19T22:00:58.846Z,3.40
2018-08-19T22:03:33.025Z,3.63
2018-08-19T22:06:06.235Z,4.20
2018-08-19T22:08:35.196Z,3.97
2018-08-19T22:11:04.362Z,3.07
2018-08-19T22:13:33.182Z,3.57
2018-08-19T22:16:02.094Z,3.70
2018-08-19T22:18:32.298Z,4.10
2018-08-19T22:21:23.158Z,4.27
2018-08-19T22:23:55.137Z,3.60
2018-08-19T22:26:24.162Z,3.40
2018-08-19T22:29:10.330Z,3.40
2018-08-19T22:31:39.431Z,3.63
2018-08-19T22:34:08.314Z,4.30
2018-08-19T22:36:37.244Z,4.17
2018-08-19T22:39:09.377Z,3.77
2018-08-19T22:41:38.235Z,4.07
2018-08-19T22:44:07.000Z,4.03
2018-08-19T22:46:35.819Z,3.83
2018-08-19T22:49:04.720Z,3.77
2018-08-19T22:51:34.180Z,4.13
2018-08-19T22:54:03.471Z,4.17
2018-08-19T22:56:32.350Z,4.20
2018-08-19T22:59:02.423Z,3.47
2018-08-19T23:01:36.436Z,3.63
2018-08-19T23:04:05.363Z,4.10
2018-08-19T23:06:34.665Z,3.90
2018-08-19T23:09:04.974Z,4.13
2018-08-19T23:11:39.212Z,3.73
2018-08-19T23:14:19.206Z,4.10
2018-08-19T23:16:48.081Z,3.50
2018-08-19T23:19:20.147Z,4.20
2018-08-19T23:21:49.044Z,3.93
2018-08-19T23:24:17.893Z,3.53
2018-08-19T23:26:46.823Z,3.53
2018-08-19T23:29:15.652Z,3.80
2018-08-19T23:31:44.451Z,3.67
2018-08-19T23:34:13.280Z,3.40
2018-08-19T23:36:42.168Z,3.33
2018-08-19T23:39:11.197Z,4.20
2018-08-19T23:41:40.098Z,3.67
2018-08-19T23:44:09.297Z,4.00
2018-08-19T23:46:38.175Z,4.30
2018-08-19T23:49:07.083Z,4.43
2018-08-19T23:51:35.909Z,4.10
2018-08-19T23:54:05.052Z,3.70
2018-08-19T23:56:33.983Z,3.50
2018-08-19T23:59:02.983Z,3.43
